sensor_id;sensor_type;location;lat;lon;timestamp;P1;durP1;ratioP1;P2;durP2;ratioP2
6356;SDS011;3211;53.452;-2.264;2024-03-25T00:00:38;9.43;;;3.37;;
6356;SDS011;3211;53.452;-2.264;2024-03-25T00:03:24;8.30;;;3.23;;
6356;SDS011;3211;53.452;-2.264;2024-03-25T00:06:12;8.53;;;3.30;;
6356;SDS011;3211;53.452;-2.264;2024-03-25T00:08:58;11.10;;;3.33;;
6356;SDS011;3211;53.452;-2.264;2024-03-25T00:11:45;9.57;;;3.27;;
6356;SDS011;3211;53.452;-2.264;2024-03-25T00:14:32;7.10;;;3.37;;
6356;SDS011;3211;53.452;-2.264;2024-03-25T00:17:20;13.40;;;4.10;;
6356;SDS011;3211;53.452;-2.264;2024-03-25T00:20:07;9.77;;;3.77;;
6356;SDS011;3211;53.452;-2.264;2024-03-25T00:22:55;9.37;;;3.70;;
6356;SDS011;3211;53.452;-2.264;2024-03-25T00:25:42;9.10;;;3.47;;
6356;SDS011;3211;53.452;-2.264;2024-03-25T00:28:29;5.97;;;3.93;;
6356;SDS011;3211;53.452;-2.264;2024-03-25T00:31:15;15.00;;;3.37;;
6356;SDS011;3211;53.452;-2.264;2024-03-25T00:34:04;6.30;;;2.50;;
6356;SDS011;3211;53.452;-2.264;2024-03-25T00:36:50;7.20;;;3.20;;
6356;SDS011;3211;53.452;-2.264;2024-03-25T00:39:38;8.97;;;3.23;;
6356;SDS011;3211;53.452;-2.264;2024-03-25T00:42:24;4.17;;;2.70;;
6356;SDS011;3211;53.452;-2.264;2024-03-25T00:45:11;6.77;;;2.40;;
6356;SDS011;3211;53.452;-2.264;2024-03-25T00:47:58;11.87;;;2.70;;
6356;SDS011;3211;53.452;-2.264;2024-03-25T00:50:46;11.53;;;2.90;;
6356;SDS011;3211;53.452;-2.264;2024-03-25T00:53:33;4.00;;;2.57;;
6356;SDS011;3211;53.452;-2.264;2024-03-25T00:56:20;9.27;;;2.83;;
6356;SDS011;3211;53.452;-2.264;2024-03-25T00:59:07;15.90;;;2.97;;
6356;SDS011;3211;53.452;-2.264;2024-03-25T01:01:53;7.87;;;2.60;;
6356;SDS011;3211;53.452;-2.264;2024-03-25T01:04:41;5.07;;;2.10;;
6356;SDS011;3211;53.452;-2.264;2024-03-25T01:07:28;4.77;;;2.43;;
6356;SDS011;3211;53.452;-2.264;2024-03-25T01:10:15;7.00;;;2.20;;
6356;SDS011;3211;53.452;-2.264;2024-03-25T01:13:02;4.00;;;2.30;;
6356;SDS011;3211;53.452;-2.264;2024-03-25T01:15:49;7.33;;;2.10;;
6356;SDS011;3211;53.452;-2.264;2024-03-25T01:18:36;5.30;;;2.10;;
6356;SDS011;3211;53.452;-2.264;2024-03-25T01:21:23;5.60;;;2.30;;
6356;SDS011;3211;53.452;-2.264;2024-03-25T01:24:11;7.30;;;2.53;;
6356;SDS011;3211;53.452;-2.264;2024-03-25T01:26:58;10.47;;;2.43;;
6356;SDS011;3211;53.452;-2.264;2024-03-25T01:29:44;5.37;;;2.73;;
6356;SDS011;3211;53.452;-2.264;2024-03-25T01:32:32;7.70;;;2.57;;
6356;SDS011;3211;53.452;-2.264;2024-03-25T01:35:18;8.43;;;2.70;;
6356;SDS011;3211;53.452;-2.264;2024-03-25T01:38:06;8.07;;;2.67;;
6356;SDS011;3211;53.452;-2.264;2024-03-25T01:40:54;4.90;;;2.63;;
6356;SDS011;3211;53.452;-2.264;2024-03-25T01:43:42;4.53;;;2.20;;
6356;SDS011;3211;53.452;-2.264;2024-03-25T01:46:28;6.27;;;2.30;;
6356;SDS011;3211;53.452;-2.264;2024-03-25T01:49:16;6.17;;;2.20;;
6356;SDS011;3211;53.452;-2.264;2024-03-25T01:52:02;8.00;;;2.40;;
6356;SDS011;3211;53.452;-2.264;2024-03-25T01:54:50;5.90;;;2.20;;
6356;SDS011;3211;53.452;-2.264;2024-03-25T01:57:37;10.60;;;3.50;;
6356;SDS011;3211;53.452;-2.264;2024-03-25T02:00:25;5.30;;;1.97;;
6356;SDS011;3211;53.452;-2.264;2024-03-25T02:03:12;6.00;;;2.20;;
6356;SDS011;3211;53.452;-2.264;2024-03-25T02:06:01;4.50;;;2.47;;
6356;SDS011;3211;53.452;-2.264;2024-03-25T02:08:49;7.20;;;2.20;;
6356;SDS011;3211;53.452;-2.264;2024-03-25T02:11:38;3.70;;;2.20;;
6356;SDS011;3211;53.452;-2.264;2024-03-25T02:14:28;11.50;;;2.83;;
6356;SDS011;3211;53.452;-2.264;2024-03-25T02:17:15;2.97;;;1.97;;
6356;SDS011;3211;53.452;-2.264;2024-03-25T02:20:01;5.30;;;2.27;;
6356;SDS011;3211;53.452;-2.264;2024-03-25T02:22:50;8.50;;;2.30;;
6356;SDS011;3211;53.452;-2.264;2024-03-25T02:25:38;7.10;;;2.33;;
6356;SDS011;3211;53.452;-2.264;2024-03-25T02:28:28;6.17;;;2.40;;
6356;SDS011;3211;53.452;-2.264;2024-03-25T02:31:14;6.23;;;2.57;;
6356;SDS011;3211;53.452;-2.264;2024-03-25T02:34:01;3.90;;;2.17;;
6356;SDS011;3211;53.452;-2.264;2024-03-25T02:36:48;3.90;;;2.13;;
6356;SDS011;3211;53.452;-2.264;2024-03-25T02:39:35;8.73;;;2.43;;
6356;SDS011;3211;53.452;-2.264;2024-03-25T02:42:22;6.40;;;2.13;;
6356;SDS011;3211;53.452;-2.264;2024-03-25T02:45:11;4.40;;;2.20;;
6356;SDS011;3211;53.452;-2.264;2024-03-25T02:47:57;4.63;;;2.10;;
6356;SDS011;3211;53.452;-2.264;2024-03-25T02:50:45;4.80;;;2.27;;
6356;SDS011;3211;53.452;-2.264;2024-03-25T02:53:31;2.87;;;2.63;;
6356;SDS011;3211;53.452;-2.264;2024-03-25T02:56:18;4.97;;;2.13;;
6356;SDS011;3211;53.452;-2.264;2024-03-25T02:59:05;7.10;;;2.47;;
6356;SDS011;3211;53.452;-2.264;2024-03-25T03:01:53;6.30;;;2.40;;
6356;SDS011;3211;53.452;-2.264;2024-03-25T03:04:40;5.73;;;2.20;;
6356;SDS011;3211;53.452;-2.264;2024-03-25T03:07:27;7.10;;;2.70;;
6356;SDS011;3211;53.452;-2.264;2024-03-25T03:10:14;4.23;;;2.30;;
6356;SDS011;3211;53.452;-2.264;2024-03-25T03:13:01;5.23;;;2.80;;
6356;SDS011;3211;53.452;-2.264;2024-03-25T03:15:48;3.57;;;2.37;;
6356;SDS011;3211;53.452;-2.264;2024-03-25T03:18:37;6.20;;;3.00;;
6356;SDS011;3211;53.452;-2.264;2024-03-25T03:21:24;7.30;;;2.93;;
6356;SDS011;3211;53.452;-2.264;2024-03-25T03:24:11;4.87;;;2.70;;
6356;SDS011;3211;53.452;-2.264;2024-03-25T03:26:58;7.73;;;2.90;;
6356;SDS011;3211;53.452;-2.264;2024-03-25T03:29:45;9.40;;;2.50;;
6356;SDS011;3211;53.452;-2.264;2024-03-25T03:32:32;9.43;;;2.83;;
6356;SDS011;3211;53.452;-2.264;2024-03-25T03:35:20;8.43;;;3.40;;
6356;SDS011;3211;53.452;-2.264;2024-03-25T03:38:06;9.17;;;3.20;;
6356;SDS011;3211;53.452;-2.264;2024-03-25T03:40:57;8.00;;;3.10;;
6356;SDS011;3211;53.452;-2.264;2024-03-25T03:43:44;4.03;;;2.63;;
6356;SDS011;3211;53.452;-2.264;2024-03-25T03:46:31;5.50;;;3.20;;
6356;SDS011;3211;53.452;-2.264;2024-03-25T03:49:17;9.17;;;3.20;;
6356;SDS011;3211;53.452;-2.264;2024-03-25T03:52:06;5.37;;;3.33;;
6356;SDS011;3211;53.452;-2.264;2024-03-25T03:54:52;6.30;;;2.90;;
6356;SDS011;3211;53.452;-2.264;2024-03-25T03:57:39;10.80;;;3.87;;
6356;SDS011;3211;53.452;-2.264;2024-03-25T04:00:28;6.63;;;3.37;;
6356;SDS011;3211;53.452;-2.264;2024-03-25T04:03:15;10.43;;;3.70;;
6356;SDS011;3211;53.452;-2.264;2024-03-25T04:06:07;7.10;;;3.50;;
6356;SDS011;3211;53.452;-2.264;2024-03-25T04:08:56;5.77;;;3.77;;
6356;SDS011;3211;53.452;-2.264;2024-03-25T04:11:44;10.93;;;3.70;;
6356;SDS011;3211;53.452;-2.264;2024-03-25T04:14:31;6.73;;;3.20;;
6356;SDS011;3211;53.452;-2.264;2024-03-25T04:17:18;9.67;;;3.70;;
6356;SDS011;3211;53.452;-2.264;2024-03-25T04:20:05;6.07;;;3.47;;
6356;SDS011;3211;53.452;-2.264;2024-03-25T04:22:56;12.67;;;3.27;;
6356;SDS011;3211;53.452;-2.264;2024-03-25T04:25:46;9.80;;;3.10;;
6356;SDS011;3211;53.452;-2.264;2024-03-25T04:28:33;4.97;;;3.00;;
6356;SDS011;3211;53.452;-2.264;2024-03-25T04:31:21;5.70;;;3.73;;
6356;SDS011;3211;53.452;-2.264;2024-03-25T04:34:07;5.73;;;3.23;;
6356;SDS011;3211;53.452;-2.264;2024-03-25T04:36:55;6.00;;;3.10;;
6356;SDS011;3211;53.452;-2.264;2024-03-25T04:39:41;10.27;;;3.47;;
6356;SDS011;3211;53.452;-2.264;2024-03-25T04:42:29;13.60;;;3.80;;
6356;SDS011;3211;53.452;-2.264;2024-03-25T04:45:16;4.40;;;2.80;;
6356;SDS011;3211;53.452;-2.264;2024-03-25T04:48:02;6.73;;;3.20;;
6356;SDS011;3211;53.452;-2.264;2024-03-25T04:50:49;5.73;;;2.80;;
6356;SDS011;3211;53.452;-2.264;2024-03-25T04:53:35;6.80;;;3.27;;
6356;SDS011;3211;53.452;-2.264;2024-03-25T04:56:21;8.60;;;3.73;;
6356;SDS011;3211;53.452;-2.264;2024-03-25T04:59:09;6.20;;;3.10;;
6356;SDS011;3211;53.452;-2.264;2024-03-25T05:01:55;5.20;;;3.37;;
6356;SDS011;3211;53.452;-2.264;2024-03-25T05:04:41;4.53;;;3.30;;
6356;SDS011;3211;53.452;-2.264;2024-03-25T05:07:28;10.77;;;3.90;;
6356;SDS011;3211;53.452;-2.264;2024-03-25T05:10:14;7.50;;;2.93;;
6356;SDS011;3211;53.452;-2.264;2024-03-25T05:13:00;7.53;;;3.20;;
6356;SDS011;3211;53.452;-2.264;2024-03-25T05:15:50;6.40;;;3.40;;
6356;SDS011;3211;53.452;-2.264;2024-03-25T05:18:37;5.03;;;2.70;;
6356;SDS011;3211;53.452;-2.264;2024-03-25T05:21:23;4.03;;;2.70;;
6356;SDS011;3211;53.452;-2.264;2024-03-25T05:24:10;10.47;;;3.37;;
6356;SDS011;3211;53.452;-2.264;2024-03-25T05:26:56;6.33;;;2.90;;
6356;SDS011;3211;53.452;-2.264;2024-03-25T05:29:42;5.47;;;2.50;;
6356;SDS011;3211;53.452;-2.264;2024-03-25T05:32:30;4.23;;;2.70;;
6356;SDS011;3211;53.452;-2.264;2024-03-25T05:35:16;4.23;;;2.20;;
6356;SDS011;3211;53.452;-2.264;2024-03-25T05:38:02;4.43;;;2.00;;
6356;SDS011;3211;53.452;-2.264;2024-03-25T05:40:49;6.50;;;2.03;;
6356;SDS011;3211;53.452;-2.264;2024-03-25T05:43:35;5.03;;;1.53;;
6356;SDS011;3211;53.452;-2.264;2024-03-25T05:46:22;3.10;;;1.53;;
6356;SDS011;3211;53.452;-2.264;2024-03-25T05:49:09;2.60;;;1.57;;
6356;SDS011;3211;53.452;-2.264;2024-03-25T05:51:55;5.53;;;2.37;;
6356;SDS011;3211;53.452;-2.264;2024-03-25T05:54:42;4.13;;;1.63;;
6356;SDS011;3211;53.452;-2.264;2024-03-25T05:57:28;4.40;;;1.57;;
6356;SDS011;3211;53.452;-2.264;2024-03-25T06:00:15;4.00;;;1.80;;
6356;SDS011;3211;53.452;-2.264;2024-03-25T06:03:01;4.23;;;1.80;;
6356;SDS011;3211;53.452;-2.264;2024-03-25T06:05:49;3.40;;;1.80;;
6356;SDS011;3211;53.452;-2.264;2024-03-25T06:08:35;3.53;;;2.00;;
6356;SDS011;3211;53.452;-2.264;2024-03-25T06:11:21;3.10;;;1.77;;
6356;SDS011;3211;53.452;-2.264;2024-03-25T06:14:08;4.27;;;1.80;;
6356;SDS011;3211;53.452;-2.264;2024-03-25T06:16:54;8.33;;;2.00;;
6356;SDS011;3211;53.452;-2.264;2024-03-25T06:19:40;3.77;;;2.07;;
6356;SDS011;3211;53.452;-2.264;2024-03-25T06:22:28;3.93;;;1.87;;
6356;SDS011;3211;53.452;-2.264;2024-03-25T06:25:15;5.40;;;2.27;;
6356;SDS011;3211;53.452;-2.264;2024-03-25T06:28:01;6.40;;;2.00;;
6356;SDS011;3211;53.452;-2.264;2024-03-25T06:30:48;4.43;;;2.17;;
6356;SDS011;3211;53.452;-2.264;2024-03-25T06:33:55;3.13;;;2.20;;
6356;SDS011;3211;53.452;-2.264;2024-03-25T06:36:59;2.73;;;2.03;;
6356;SDS011;3211;53.452;-2.264;2024-03-25T06:39:47;3.37;;;2.20;;
6356;SDS011;3211;53.452;-2.264;2024-03-25T06:42:33;3.40;;;1.70;;
6356;SDS011;3211;53.452;-2.264;2024-03-25T06:45:20;7.07;;;1.97;;
6356;SDS011;3211;53.452;-2.264;2024-03-25T06:48:06;1.97;;;1.70;;
6356;SDS011;3211;53.452;-2.264;2024-03-25T06:50:53;4.50;;;1.83;;
6356;SDS011;3211;53.452;-2.264;2024-03-25T06:53:40;3.60;;;2.07;;
6356;SDS011;3211;53.452;-2.264;2024-03-25T06:56:28;2.40;;;1.80;;
6356;SDS011;3211;53.452;-2.264;2024-03-25T06:59:14;5.63;;;1.97;;
6356;SDS011;3211;53.452;-2.264;2024-03-25T07:02:01;2.67;;;1.90;;
6356;SDS011;3211;53.452;-2.264;2024-03-25T07:04:47;3.27;;;2.00;;
6356;SDS011;3211;53.452;-2.264;2024-03-25T07:07:33;2.93;;;2.03;;
6356;SDS011;3211;53.452;-2.264;2024-03-25T07:10:20;3.43;;;2.10;;
6356;SDS011;3211;53.452;-2.264;2024-03-25T07:13:07;1.87;;;1.57;;
6356;SDS011;3211;53.452;-2.264;2024-03-25T07:15:54;4.20;;;2.10;;
6356;SDS011;3211;53.452;-2.264;2024-03-25T07:18:41;3.83;;;1.90;;
6356;SDS011;3211;53.452;-2.264;2024-03-25T07:21:27;2.73;;;1.90;;
6356;SDS011;3211;53.452;-2.264;2024-03-25T07:24:14;3.33;;;1.83;;
6356;SDS011;3211;53.452;-2.264;2024-03-25T07:27:00;2.20;;;1.60;;
6356;SDS011;3211;53.452;-2.264;2024-03-25T07:29:47;2.10;;;1.60;;
6356;SDS011;3211;53.452;-2.264;2024-03-25T07:32:34;3.00;;;1.70;;
6356;SDS011;3211;53.452;-2.264;2024-03-25T07:35:20;3.30;;;2.00;;
6356;SDS011;3211;53.452;-2.264;2024-03-25T07:38:07;3.10;;;1.90;;
6356;SDS011;3211;53.452;-2.264;2024-03-25T07:40:53;1.87;;;1.77;;
6356;SDS011;3211;53.452;-2.264;2024-03-25T07:43:39;2.90;;;2.17;;
6356;SDS011;3211;53.452;-2.264;2024-03-25T07:46:27;4.40;;;2.00;;
6356;SDS011;3211;53.452;-2.264;2024-03-25T07:49:13;1.50;;;1.40;;
6356;SDS011;3211;53.452;-2.264;2024-03-25T07:51:59;3.93;;;1.80;;
6356;SDS011;3211;53.452;-2.264;2024-03-25T07:54:46;2.70;;;1.80;;
6356;SDS011;3211;53.452;-2.264;2024-03-25T07:57:32;2.60;;;1.80;;
6356;SDS011;3211;53.452;-2.264;2024-03-25T08:00:18;2.00;;;1.80;;
6356;SDS011;3211;53.452;-2.264;2024-03-25T08:03:06;2.33;;;1.90;;
6356;SDS011;3211;53.452;-2.264;2024-03-25T08:05:52;1.60;;;1.50;;
6356;SDS011;3211;53.452;-2.264;2024-03-25T08:08:39;2.10;;;1.83;;
6356;SDS011;3211;53.452;-2.264;2024-03-25T08:11:25;2.87;;;1.80;;
6356;SDS011;3211;53.452;-2.264;2024-03-25T08:14:12;1.90;;;1.80;;
6356;SDS011;3211;53.452;-2.264;2024-03-25T08:16:58;2.13;;;1.40;;
6356;SDS011;3211;53.452;-2.264;2024-03-25T08:19:46;2.40;;;1.90;;
6356;SDS011;3211;53.452;-2.264;2024-03-25T08:22:32;1.90;;;1.70;;
6356;SDS011;3211;53.452;-2.264;2024-03-25T08:25:18;2.57;;;1.50;;
6356;SDS011;3211;53.452;-2.264;2024-03-25T08:28:05;2.07;;;1.73;;
6356;SDS011;3211;53.452;-2.264;2024-03-25T08:30:54;2.77;;;1.87;;
6356;SDS011;3211;53.452;-2.264;2024-03-25T08:33:40;2.30;;;1.77;;
6356;SDS011;3211;53.452;-2.264;2024-03-25T08:36:28;5.03;;;1.80;;
6356;SDS011;3211;53.452;-2.264;2024-03-25T08:39:14;2.00;;;1.70;;
6356;SDS011;3211;53.452;-2.264;2024-03-25T08:42:01;2.57;;;1.90;;
6356;SDS011;3211;53.452;-2.264;2024-03-25T08:44:47;5.40;;;2.80;;
6356;SDS011;3211;53.452;-2.264;2024-03-25T08:47:33;2.13;;;1.80;;
6356;SDS011;3211;53.452;-2.264;2024-03-25T08:50:19;2.70;;;1.73;;
6356;SDS011;3211;53.452;-2.264;2024-03-25T08:53:07;2.90;;;1.97;;
6356;SDS011;3211;53.452;-2.264;2024-03-25T08:55:53;2.13;;;1.80;;
6356;SDS011;3211;53.452;-2.264;2024-03-25T08:58:40;4.40;;;2.33;;
6356;SDS011;3211;53.452;-2.264;2024-03-25T09:01:26;3.83;;;2.30;;
6356;SDS011;3211;53.452;-2.264;2024-03-25T09:04:12;2.50;;;1.80;;
6356;SDS011;3211;53.452;-2.264;2024-03-25T09:06:59;3.27;;;1.67;;
6356;SDS011;3211;53.452;-2.264;2024-03-25T09:09:47;3.60;;;1.80;;
6356;SDS011;3211;53.452;-2.264;2024-03-25T09:12:51;3.53;;;1.67;;
6356;SDS011;3211;53.452;-2.264;2024-03-25T09:15:37;3.10;;;1.67;;
6356;SDS011;3211;53.452;-2.264;2024-03-25T09:18:23;1.97;;;1.60;;
6356;SDS011;3211;53.452;-2.264;2024-03-25T09:21:10;2.17;;;1.70;;
6356;SDS011;3211;53.452;-2.264;2024-03-25T09:23:56;2.87;;;1.70;;
6356;SDS011;3211;53.452;-2.264;2024-03-25T09:26:44;2.27;;;1.57;;
6356;SDS011;3211;53.452;-2.264;2024-03-25T09:29:30;3.23;;;1.70;;
6356;SDS011;3211;53.452;-2.264;2024-03-25T09:32:16;2.67;;;1.50;;
6356;SDS011;3211;53.452;-2.264;2024-03-25T09:35:03;2.80;;;1.50;;
6356;SDS011;3211;53.452;-2.264;2024-03-25T09:37:49;2.03;;;1.50;;
6356;SDS011;3211;53.452;-2.264;2024-03-25T09:40:36;5.93;;;1.53;;
6356;SDS011;3211;53.452;-2.264;2024-03-25T09:43:30;2.90;;;1.70;;
6356;SDS011;3211;53.452;-2.264;2024-03-25T09:46:19;2.47;;;1.60;;
6356;SDS011;3211;53.452;-2.264;2024-03-25T09:49:08;2.50;;;1.40;;
6356;SDS011;3211;53.452;-2.264;2024-03-25T09:51:54;2.00;;;1.50;;
6356;SDS011;3211;53.452;-2.264;2024-03-25T09:54:40;1.40;;;1.20;;
6356;SDS011;3211;53.452;-2.264;2024-03-25T09:57:27;2.63;;;1.40;;
6356;SDS011;3211;53.452;-2.264;2024-03-25T10:00:15;1.57;;;1.47;;
6356;SDS011;3211;53.452;-2.264;2024-03-25T10:03:02;1.50;;;1.30;;
6356;SDS011;3211;53.452;-2.264;2024-03-25T10:05:48;1.57;;;1.20;;
6356;SDS011;3211;53.452;-2.264;2024-03-25T10:08:34;4.60;;;1.40;;
6356;SDS011;3211;53.452;-2.264;2024-03-25T10:11:21;1.37;;;1.27;;
6356;SDS011;3211;53.452;-2.264;2024-03-25T10:14:07;1.50;;;1.40;;
6356;SDS011;3211;53.452;-2.264;2024-03-25T10:16:55;1.40;;;1.30;;
6356;SDS011;3211;53.452;-2.264;2024-03-25T10:19:41;1.97;;;1.30;;
6356;SDS011;3211;53.452;-2.264;2024-03-25T10:22:27;1.30;;;1.20;;
6356;SDS011;3211;53.452;-2.264;2024-03-25T10:25:23;1.47;;;1.20;;
6356;SDS011;3211;53.452;-2.264;2024-03-25T10:28:11;1.67;;;1.40;;
6356;SDS011;3211;53.452;-2.264;2024-03-25T10:31:02;1.20;;;1.10;;
6356;SDS011;3211;53.452;-2.264;2024-03-25T10:33:50;1.10;;;1.00;;
6356;SDS011;3211;53.452;-2.264;2024-03-25T10:36:37;1.50;;;1.40;;
6356;SDS011;3211;53.452;-2.264;2024-03-25T10:39:25;1.93;;;1.30;;
6356;SDS011;3211;53.452;-2.264;2024-03-25T10:42:19;1.40;;;1.07;;
6356;SDS011;3211;53.452;-2.264;2024-03-25T10:45:07;3.57;;;1.30;;
6356;SDS011;3211;53.452;-2.264;2024-03-25T10:47:55;1.57;;;1.30;;
6356;SDS011;3211;53.452;-2.264;2024-03-25T10:50:44;1.40;;;1.30;;
6356;SDS011;3211;53.452;-2.264;2024-03-25T10:53:32;1.30;;;1.20;;
6356;SDS011;3211;53.452;-2.264;2024-03-25T10:56:22;1.40;;;1.30;;
6356;SDS011;3211;53.452;-2.264;2024-03-25T10:59:08;1.47;;;1.23;;
6356;SDS011;3211;53.452;-2.264;2024-03-25T11:01:56;1.30;;;1.10;;
6356;SDS011;3211;53.452;-2.264;2024-03-25T11:04:42;1.20;;;1.10;;
6356;SDS011;3211;53.452;-2.264;2024-03-25T11:07:31;1.40;;;1.30;;
6356;SDS011;3211;53.452;-2.264;2024-03-25T11:10:18;1.13;;;0.93;;
6356;SDS011;3211;53.452;-2.264;2024-03-25T11:13:14;2.67;;;1.20;;
6356;SDS011;3211;53.452;-2.264;2024-03-25T11:16:04;3.10;;;1.47;;
6356;SDS011;3211;53.452;-2.264;2024-03-25T11:18:51;3.17;;;1.50;;
6356;SDS011;3211;53.452;-2.264;2024-03-25T11:21:37;1.30;;;1.10;;
6356;SDS011;3211;53.452;-2.264;2024-03-25T11:24:28;1.47;;;1.37;;
6356;SDS011;3211;53.452;-2.264;2024-03-25T11:27:14;1.23;;;1.10;;
6356;SDS011;3211;53.452;-2.264;2024-03-25T11:30:07;1.50;;;1.40;;
6356;SDS011;3211;53.452;-2.264;2024-03-25T11:32:53;1.40;;;1.30;;
6356;SDS011;3211;53.452;-2.264;2024-03-25T11:35:40;2.60;;;1.50;;
6356;SDS011;3211;53.452;-2.264;2024-03-25T11:38:26;2.57;;;1.40;;
6356;SDS011;3211;53.452;-2.264;2024-03-25T11:41:14;1.60;;;1.50;;
6356;SDS011;3211;53.452;-2.264;2024-03-25T11:44:00;1.40;;;1.30;;
6356;SDS011;3211;53.452;-2.264;2024-03-25T11:46:47;2.17;;;1.50;;
6356;SDS011;3211;53.452;-2.264;2024-03-25T11:49:33;2.53;;;1.60;;
6356;SDS011;3211;53.452;-2.264;2024-03-25T11:52:22;2.13;;;1.30;;
6356;SDS011;3211;53.452;-2.264;2024-03-25T11:55:08;2.20;;;2.00;;
6356;SDS011;3211;53.452;-2.264;2024-03-25T11:57:56;2.63;;;2.07;;
6356;SDS011;3211;53.452;-2.264;2024-03-25T12:00:43;1.33;;;1.23;;
6356;SDS011;3211;53.452;-2.264;2024-03-25T12:03:30;2.80;;;1.63;;
6356;SDS011;3211;53.452;-2.264;2024-03-25T12:06:18;4.77;;;1.60;;
6356;SDS011;3211;53.452;-2.264;2024-03-25T12:09:05;1.67;;;1.53;;
6356;SDS011;3211;53.452;-2.264;2024-03-25T12:12:09;1.70;;;1.60;;
6356;SDS011;3211;53.452;-2.264;2024-03-25T12:14:57;2.43;;;1.57;;
6356;SDS011;3211;53.452;-2.264;2024-03-25T12:17:43;2.03;;;1.70;;
6356;SDS011;3211;53.452;-2.264;2024-03-25T12:20:30;1.90;;;1.60;;
6356;SDS011;3211;53.452;-2.264;2024-03-25T12:23:17;2.17;;;1.57;;
6356;SDS011;3211;53.452;-2.264;2024-03-25T12:26:04;2.47;;;1.57;;
6356;SDS011;3211;53.452;-2.264;2024-03-25T12:28:50;3.20;;;1.57;;
6356;SDS011;3211;53.452;-2.264;2024-03-25T12:31:38;3.93;;;1.57;;
6356;SDS011;3211;53.452;-2.264;2024-03-25T12:34:25;4.03;;;1.43;;
6356;SDS011;3211;53.452;-2.264;2024-03-25T12:37:14;2.43;;;1.90;;
6356;SDS011;3211;53.452;-2.264;2024-03-25T12:40:01;2.30;;;1.60;;
6356;SDS011;3211;53.452;-2.264;2024-03-25T12:42:48;2.57;;;1.43;;
6356;SDS011;3211;53.452;-2.264;2024-03-25T12:45:38;2.13;;;1.93;;
6356;SDS011;3211;53.452;-2.264;2024-03-25T12:48:25;2.80;;;1.60;;
6356;SDS011;3211;53.452;-2.264;2024-03-25T12:51:12;2.13;;;1.50;;
6356;SDS011;3211;53.452;-2.264;2024-03-25T12:54:00;2.93;;;1.63;;
6356;SDS011;3211;53.452;-2.264;2024-03-25T12:56:46;3.37;;;1.90;;
6356;SDS011;3211;53.452;-2.264;2024-03-25T12:59:33;2.40;;;1.60;;
6356;SDS011;3211;53.452;-2.264;2024-03-25T13:02:19;4.00;;;1.90;;
6356;SDS011;3211;53.452;-2.264;2024-03-25T13:05:07;2.27;;;1.73;;
6356;SDS011;3211;53.452;-2.264;2024-03-25T13:07:54;6.70;;;1.97;;
6356;SDS011;3211;53.452;-2.264;2024-03-25T13:10:40;3.50;;;2.30;;
6356;SDS011;3211;53.452;-2.264;2024-03-25T13:13:26;2.30;;;2.00;;
6356;SDS011;3211;53.452;-2.264;2024-03-25T13:16:12;3.77;;;2.37;;
6356;SDS011;3211;53.452;-2.264;2024-03-25T13:18:59;2.90;;;1.90;;
6356;SDS011;3211;53.452;-2.264;2024-03-25T13:21:46;4.93;;;1.93;;
6356;SDS011;3211;53.452;-2.264;2024-03-25T13:24:33;4.53;;;1.87;;
6356;SDS011;3211;53.452;-2.264;2024-03-25T13:27:19;3.80;;;2.00;;
6356;SDS011;3211;53.452;-2.264;2024-03-25T13:30:06;5.00;;;2.07;;
6356;SDS011;3211;53.452;-2.264;2024-03-25T13:32:53;5.80;;;2.50;;
6356;SDS011;3211;53.452;-2.264;2024-03-25T13:35:39;6.97;;;2.27;;
6356;SDS011;3211;53.452;-2.264;2024-03-25T13:38:27;2.60;;;2.00;;
6356;SDS011;3211;53.452;-2.264;2024-03-25T13:41:13;2.73;;;2.00;;
6356;SDS011;3211;53.452;-2.264;2024-03-25T13:43:59;3.90;;;2.20;;
6356;SDS011;3211;53.452;-2.264;2024-03-25T13:46:46;4.97;;;2.37;;
6356;SDS011;3211;53.452;-2.264;2024-03-25T13:49:32;5.77;;;1.87;;
6356;SDS011;3211;53.452;-2.264;2024-03-25T13:52:20;5.90;;;2.17;;
6356;SDS011;3211;53.452;-2.264;2024-03-25T13:55:08;4.50;;;2.00;;
6356;SDS011;3211;53.452;-2.264;2024-03-25T13:57:54;4.30;;;2.00;;
6356;SDS011;3211;53.452;-2.264;2024-03-25T14:00:40;3.10;;;2.00;;
6356;SDS011;3211;53.452;-2.264;2024-03-25T14:03:26;3.33;;;1.80;;
6356;SDS011;3211;53.452;-2.264;2024-03-25T14:06:13;5.00;;;2.00;;
6356;SDS011;3211;53.452;-2.264;2024-03-25T14:08:59;4.23;;;2.13;;
6356;SDS011;3211;53.452;-2.264;2024-03-25T14:11:47;4.97;;;2.10;;
6356;SDS011;3211;53.452;-2.264;2024-03-25T14:14:33;3.20;;;2.10;;
6356;SDS011;3211;53.452;-2.264;2024-03-25T14:17:19;2.10;;;1.90;;
6356;SDS011;3211;53.452;-2.264;2024-03-25T14:20:06;6.00;;;2.23;;
6356;SDS011;3211;53.452;-2.264;2024-03-25T14:22:53;2.33;;;1.67;;
6356;SDS011;3211;53.452;-2.264;2024-03-25T14:25:40;2.40;;;1.97;;
6356;SDS011;3211;53.452;-2.264;2024-03-25T14:28:27;5.47;;;1.93;;
6356;SDS011;3211;53.452;-2.264;2024-03-25T14:31:14;5.67;;;2.13;;
6356;SDS011;3211;53.452;-2.264;2024-03-25T14:34:00;4.23;;;2.20;;
6356;SDS011;3211;53.452;-2.264;2024-03-25T14:36:46;4.27;;;2.10;;
6356;SDS011;3211;53.452;-2.264;2024-03-25T14:39:33;4.40;;;1.77;;
6356;SDS011;3211;53.452;-2.264;2024-03-25T14:42:19;5.87;;;2.27;;
6356;SDS011;3211;53.452;-2.264;2024-03-25T14:45:07;2.10;;;1.90;;
6356;SDS011;3211;53.452;-2.264;2024-03-25T14:47:53;5.30;;;2.43;;
6356;SDS011;3211;53.452;-2.264;2024-03-25T14:50:40;2.67;;;2.00;;
6356;SDS011;3211;53.452;-2.264;2024-03-25T14:53:26;2.00;;;1.70;;
6356;SDS011;3211;53.452;-2.264;2024-03-25T14:56:12;1.83;;;1.70;;
6356;SDS011;3211;53.452;-2.264;2024-03-25T14:58:59;8.93;;;2.03;;
6356;SDS011;3211;53.452;-2.264;2024-03-25T15:01:46;3.03;;;1.97;;
6356;SDS011;3211;53.452;-2.264;2024-03-25T15:04:33;4.13;;;2.47;;
6356;SDS011;3211;53.452;-2.264;2024-03-25T15:07:19;4.30;;;1.70;;
6356;SDS011;3211;53.452;-2.264;2024-03-25T15:10:06;2.20;;;1.90;;
6356;SDS011;3211;53.452;-2.264;2024-03-25T15:12:53;1.70;;;1.47;;
6356;SDS011;3211;53.452;-2.264;2024-03-25T15:15:39;1.73;;;1.50;;
6356;SDS011;3211;53.452;-2.264;2024-03-25T15:18:28;2.23;;;1.60;;
6356;SDS011;3211;53.452;-2.264;2024-03-25T15:21:14;4.30;;;1.60;;
6356;SDS011;3211;53.452;-2.264;2024-03-25T15:24:00;5.63;;;1.97;;
6356;SDS011;3211;53.452;-2.264;2024-03-25T15:26:48;2.53;;;1.70;;
6356;SDS011;3211;53.452;-2.264;2024-03-25T15:29:37;3.10;;;2.10;;
6356;SDS011;3211;53.452;-2.264;2024-03-25T15:32:23;2.93;;;1.80;;
6356;SDS011;3211;53.452;-2.264;2024-03-25T15:35:11;4.63;;;1.80;;
6356;SDS011;3211;53.452;-2.264;2024-03-25T15:37:58;5.63;;;2.20;;
6356;SDS011;3211;53.452;-2.264;2024-03-25T15:40:48;3.43;;;1.63;;
6356;SDS011;3211;53.452;-2.264;2024-03-25T15:43:38;5.40;;;1.70;;
6356;SDS011;3211;53.452;-2.264;2024-03-25T15:46:25;3.83;;;2.30;;
6356;SDS011;3211;53.452;-2.264;2024-03-25T15:49:11;3.27;;;2.07;;
6356;SDS011;3211;53.452;-2.264;2024-03-25T15:51:59;2.37;;;1.70;;
6356;SDS011;3211;53.452;-2.264;2024-03-25T15:54:45;3.93;;;1.77;;
6356;SDS011;3211;53.452;-2.264;2024-03-25T15:57:31;1.63;;;1.53;;
6356;SDS011;3211;53.452;-2.264;2024-03-25T16:00:18;4.97;;;1.80;;
6356;SDS011;3211;53.452;-2.264;2024-03-25T16:03:04;5.30;;;2.30;;
6356;SDS011;3211;53.452;-2.264;2024-03-25T16:05:51;2.97;;;1.80;;
6356;SDS011;3211;53.452;-2.264;2024-03-25T16:08:39;3.67;;;1.87;;
6356;SDS011;3211;53.452;-2.264;2024-03-25T16:11:26;2.23;;;2.03;;
6356;SDS011;3211;53.452;-2.264;2024-03-25T16:14:13;2.47;;;2.00;;
6356;SDS011;3211;53.452;-2.264;2024-03-25T16:16:59;4.30;;;1.80;;
6356;SDS011;3211;53.452;-2.264;2024-03-25T16:19:48;5.33;;;1.67;;
6356;SDS011;3211;53.452;-2.264;2024-03-25T16:22:35;5.90;;;2.47;;
6356;SDS011;3211;53.452;-2.264;2024-03-25T16:25:23;3.37;;;1.80;;
6356;SDS011;3211;53.452;-2.264;2024-03-25T16:28:09;2.07;;;1.77;;
6356;SDS011;3211;53.452;-2.264;2024-03-25T16:30:55;5.47;;;2.10;;
6356;SDS011;3211;53.452;-2.264;2024-03-25T16:33:42;5.73;;;1.77;;
6356;SDS011;3211;53.452;-2.264;2024-03-25T16:36:28;4.23;;;2.07;;
6356;SDS011;3211;53.452;-2.264;2024-03-25T16:39:15;7.53;;;2.47;;
6356;SDS011;3211;53.452;-2.264;2024-03-25T16:42:02;2.60;;;1.63;;
6356;SDS011;3211;53.452;-2.264;2024-03-25T16:44:49;4.03;;;2.00;;
6356;SDS011;3211;53.452;-2.264;2024-03-25T16:47:35;3.03;;;2.27;;
6356;SDS011;3211;53.452;-2.264;2024-03-25T16:50:21;4.37;;;2.30;;
6356;SDS011;3211;53.452;-2.264;2024-03-25T16:53:08;4.40;;;2.00;;
6356;SDS011;3211;53.452;-2.264;2024-03-25T16:55:54;3.83;;;2.07;;
6356;SDS011;3211;53.452;-2.264;2024-03-25T16:58:42;6.80;;;4.50;;
6356;SDS011;3211;53.452;-2.264;2024-03-25T17:01:28;5.40;;;2.60;;